createdAt,value
2022-12-06T00:00:08.397Z,5.00
2022-12-06T00:02:40.388Z,5.50
2022-12-06T00:05:09.930Z,5.57
2022-12-06T00:07:37.797Z,4.67
2022-12-06T00:10:07.611Z,4.97
2022-12-06T00:12:35.446Z,5.40
2022-12-06T00:15:03.454Z,5.57
2022-12-06T00:17:31.307Z,5.60
2022-12-06T00:19:59.350Z,5.97
2022-12-06T00:22:28.849Z,6.67
2022-12-06T00:24:56.711Z,7.60
2022-12-06T00:27:24.636Z,7.80
2022-12-06T00:29:52.565Z,7.03
2022-12-06T00:32:20.435Z,8.10
2022-12-06T00:34:48.265Z,7.50
2022-12-06T00:37:16.124Z,7.47
2022-12-06T00:39:45.386Z,6.97
2022-12-06T00:42:13.249Z,5.70
2022-12-06T00:44:41.109Z,5.23
2022-12-06T00:47:08.964Z,5.40
2022-12-06T00:49:36.778Z,4.90
2022-12-06T00:52:04.981Z,4.97
2022-12-06T00:54:32.831Z,5.07
2022-12-06T00:57:02.038Z,5.00
2022-12-06T00:59:29.898Z,4.50
2022-12-06T01:01:57.765Z,5.00
2022-12-06T01:04:25.622Z,5.70
2022-12-06T01:06:53.504Z,5.50
2022-12-06T01:09:21.419Z,5.63
2022-12-06T01:11:49.262Z,6.37
2022-12-06T01:14:18.374Z,6.93
2022-12-06T01:16:46.194Z,6.83
2022-12-06T01:19:14.375Z,7.40
2022-12-06T01:21:42.229Z,6.70
2022-12-06T01:24:09.974Z,7.67
2022-12-06T01:26:37.770Z,6.90
2022-12-06T01:29:05.841Z,7.43
2022-12-06T01:31:38.663Z,8.70
2022-12-06T01:34:08.072Z,8.43
2022-12-06T01:36:35.960Z,7.93
2022-12-06T01:39:06.864Z,8.73
2022-12-06T01:41:34.925Z,8.20
2022-12-06T01:44:02.816Z,8.70
2022-12-06T01:46:34.620Z,8.40
2022-12-06T01:49:16.593Z,7.97
2022-12-06T01:51:47.068Z,8.33
2022-12-06T01:54:17.152Z,8.10
2022-12-06T01:56:45.466Z,7.93
2022-12-06T01:59:13.764Z,8.27
2022-12-06T02:01:42.402Z,7.87
2022-12-06T02:04:11.715Z,7.57
2022-12-06T02:06:41.376Z,7.50
2022-12-06T02:09:11.053Z,9.00
2022-12-06T02:11:41.620Z,8.07
2022-12-06T02:14:14.489Z,8.60
2022-12-06T02:16:59.259Z,8.17
2022-12-06T02:20:05.353Z,8.33
2022-12-06T02:23:13.621Z,8.90
2022-12-06T02:26:17.733Z,8.43
2022-12-06T02:29:22.931Z,8.20
2022-12-06T02:31:57.527Z,7.50
2022-12-06T02:34:32.638Z,7.43
2022-12-06T02:37:07.527Z,9.00
2022-12-06T02:39:38.103Z,8.70
2022-12-06T02:42:09.641Z,8.43
2022-12-06T02:44:42.187Z,8.10
2022-12-06T02:47:14.136Z,7.60
2022-12-06T02:49:49.607Z,7.80
2022-12-06T02:52:21.076Z,7.90
2022-12-06T02:54:50.604Z,7.23
2022-12-06T02:57:20.577Z,6.73
2022-12-06T02:59:55.273Z,6.77
2022-12-06T03:02:25.344Z,6.13
2022-12-06T03:05:06.241Z,7.17
2022-12-06T03:07:41.012Z,7.27
2022-12-06T03:10:23.377Z,6.67
2022-12-06T03:12:57.308Z,6.30
2022-12-06T03:15:37.468Z,6.00
2022-12-06T03:18:12.386Z,6.20
2022-12-06T03:20:45.716Z,6.47
2022-12-06T03:23:17.545Z,6.57
2022-12-06T03:25:47.964Z,6.03
2022-12-06T03:28:18.496Z,5.57
2022-12-06T03:30:50.632Z,6.57
2022-12-06T03:33:23.325Z,6.30
2022-12-06T03:35:53.802Z,6.77
2022-12-06T03:38:27.253Z,6.87
2022-12-06T03:40:58.229Z,7.07
2022-12-06T03:43:26.190Z,7.13
2022-12-06T03:46:00.496Z,7.33
2022-12-06T03:48:35.853Z,7.70
2022-12-06T03:51:06.675Z,7.47
2022-12-06T03:53:34.707Z,7.30
2022-12-06T03:56:02.511Z,8.87
2022-12-06T03:58:30.303Z,8.07
2022-12-06T04:01:04.848Z,9.17
2022-12-06T04:03:34.120Z,9.53
2022-12-06T04:06:03.380Z,10.30
2022-12-06T04:08:31.152Z,8.90
2022-12-06T04:10:59.280Z,9.77
2022-12-06T04:13:27.546Z,8.87
2022-12-06T04:15:56.989Z,9.70
2022-12-06T04:18:24.368Z,9.27
2022-12-06T04:21:18.271Z,9.20
2022-12-06T04:23:48.145Z,10.60
2022-12-06T04:26:19.020Z,11.30
2022-12-06T04:29:05.468Z,11.10
2022-12-06T04:31:51.392Z,9.67
2022-12-06T04:34:36.587Z,10.23
2022-12-06T04:37:23.596Z,9.77
2022-12-06T04:39:51.616Z,9.57
2022-12-06T04:42:39.308Z,9.03
2022-12-06T04:45:08.217Z,9.03
2022-12-06T04:47:35.951Z,8.60
2022-12-06T04:50:03.899Z,8.27
2022-12-06T04:52:36.016Z,8.97
2022-12-06T04:55:05.327Z,7.60
2022-12-06T04:57:33.228Z,7.50
2022-12-06T05:00:01.301Z,9.53
2022-12-06T05:02:29.399Z,8.80
2022-12-06T05:04:57.441Z,7.80
2022-12-06T05:07:25.229Z,7.57
2022-12-06T05:09:54.320Z,8.50
2022-12-06T05:12:22.090Z,7.80
2022-12-06T05:14:49.964Z,7.40
2022-12-06T05:17:17.850Z,8.27
2022-12-06T05:19:45.600Z,8.30
2022-12-06T05:22:13.306Z,7.50
2022-12-06T05:24:41.094Z,7.60
2022-12-06T05:27:10.171Z,7.67
2022-12-06T05:29:37.940Z,7.93
2022-12-06T05:32:06.187Z,8.73
2022-12-06T05:34:33.939Z,8.83
2022-12-06T05:37:01.735Z,8.07
2022-12-06T05:39:29.753Z,8.07
2022-12-06T05:41:57.542Z,7.70
2022-12-06T05:44:26.672Z,7.50
2022-12-06T05:46:54.557Z,7.83
2022-12-06T05:49:22.300Z,7.67
2022-12-06T05:51:50.159Z,7.70
2022-12-06T05:54:17.915Z,7.97
2022-12-06T05:56:45.800Z,8.60
2022-12-06T05:59:13.518Z,8.90
2022-12-06T06:01:43.844Z,9.30
2022-12-06T06:04:11.688Z,8.30
2022-12-06T06:06:39.465Z,7.90
2022-12-06T06:09:07.234Z,8.50
2022-12-06T06:11:35.013Z,7.57
2022-12-06T06:14:02.796Z,8.23
2022-12-06T06:16:30.629Z,9.23
2022-12-06T06:19:01.722Z,7.83
2022-12-06T06:21:29.939Z,8.63
2022-12-06T06:23:57.793Z,8.27
2022-12-06T06:26:25.780Z,7.93
2022-12-06T06:28:53.544Z,7.37
2022-12-06T06:31:21.392Z,7.37
2022-12-06T06:33:49.345Z,7.60
2022-12-06T06:36:18.475Z,7.30
2022-12-06T06:38:46.236Z,6.87
2022-12-06T06:41:14.131Z,6.57
2022-12-06T06:43:41.912Z,7.00
2022-12-06T06:46:09.745Z,7.23
2022-12-06T06:48:40.138Z,6.50
2022-12-06T06:51:10.533Z,6.70
2022-12-06T06:53:40.293Z,6.13
2022-12-06T06:56:08.854Z,6.57
2022-12-06T06:58:36.757Z,5.80
2022-12-06T07:01:06.599Z,6.03
2022-12-06T07:03:35.141Z,5.97
2022-12-06T07:06:05.502Z,5.33
2022-12-06T07:08:33.562Z,5.10
2022-12-06T07:11:02.664Z,6.10
2022-12-06T07:13:31.720Z,6.37
2022-12-06T07:16:00.016Z,7.10
2022-12-06T07:18:27.853Z,5.80
2022-12-06T07:21:00.677Z,5.63
2022-12-06T07:23:28.627Z,5.80
2022-12-06T07:26:06.196Z,5.53
2022-12-06T07:28:36.597Z,6.43
2022-12-06T07:31:11.472Z,5.57
2022-12-06T07:33:39.831Z,5.70
2022-12-06T07:36:13.563Z,5.40
2022-12-06T07:38:42.956Z,6.03
2022-12-06T07:41:31.127Z,5.83
2022-12-06T07:44:18.292Z,5.83
2022-12-06T07:46:46.914Z,6.80
2022-12-06T07:49:16.993Z,5.70
2022-12-06T07:51:45.636Z,5.93
2022-12-06T07:54:13.906Z,5.23
2022-12-06T07:56:44.215Z,5.17
2022-12-06T07:59:13.065Z,5.70
2022-12-06T08:01:41.433Z,5.30
2022-12-06T08:04:09.579Z,5.43
2022-12-06T08:06:37.868Z,5.10
2022-12-06T08:09:06.889Z,5.50
2022-12-06T08:11:35.673Z,5.70
2022-12-06T08:14:05.452Z,5.73
2022-12-06T08:16:33.386Z,5.67
2022-12-06T08:19:02.979Z,5.40
2022-12-06T08:21:30.760Z,5.27
2022-12-06T08:23:58.560Z,5.07
2022-12-06T08:26:26.572Z,4.90
2022-12-06T08:28:54.466Z,5.47
2022-12-06T08:31:25.169Z,5.10
2022-12-06T08:33:53.208Z,5.60
2022-12-06T08:36:23.175Z,5.10
2022-12-06T08:38:51.877Z,4.73
2022-12-06T08:41:37.972Z,4.50
2022-12-06T08:44:06.796Z,5.37
2022-12-06T08:46:36.353Z,5.90
2022-12-06T08:49:04.836Z,4.90
2022-12-06T08:51:34.687Z,5.20
2022-12-06T08:54:03.358Z,5.87
2022-12-06T08:56:31.141Z,6.03
2022-12-06T08:58:59.194Z,5.33
2022-12-06T09:01:34.146Z,4.83
2022-12-06T09:04:08.653Z,4.83
2022-12-06T09:06:39.332Z,5.27
2022-12-06T09:09:07.763Z,5.70
2022-12-06T09:11:35.664Z,5.13
2022-12-06T09:14:03.719Z,5.53
2022-12-06T09:16:31.937Z,4.93
2022-12-06T09:18:59.828Z,5.00
2022-12-06T09:21:30.607Z,4.40
2022-12-06T09:23:59.520Z,4.80
2022-12-06T09:26:28.951Z,5.27
2022-12-06T09:28:57.577Z,5.60
2022-12-06T09:31:26.175Z,5.70
2022-12-06T09:33:54.085Z,5.17
2022-12-06T09:36:24.709Z,5.30
2022-12-06T09:38:58.273Z,5.00
2022-12-06T09:42:10.830Z,5.00
2022-12-06T09:45:07.262Z,5.27
2022-12-06T09:47:49.487Z,5.00
2022-12-06T09:50:34.671Z,5.10
2022-12-06T09:53:17.265Z,5.17
2022-12-06T09:55:57.749Z,5.03
2022-12-06T09:58:38.818Z,4.77
2022-12-06T10:01:19.037Z,4.97
2022-12-06T10:03:59.098Z,4.80
2022-12-06T10:06:35.932Z,5.00
2022-12-06T10:09:28.083Z,4.90
2022-12-06T10:12:13.573Z,3.93
2022-12-06T10:14:57.257Z,4.73
2022-12-06T10:17:34.282Z,4.17
2022-12-06T10:20:12.596Z,4.50
2022-12-06T10:22:56.363Z,4.50
2022-12-06T10:25:27.651Z,4.40
2022-12-06T10:28:07.733Z,5.10
2022-12-06T10:30:40.738Z,4.83
2022-12-06T10:33:22.585Z,4.20
2022-12-06T10:35:55.650Z,4.30
2022-12-06T10:38:31.398Z,4.23
2022-12-06T10:41:10.945Z,3.70
2022-12-06T10:43:48.583Z,3.93
2022-12-06T10:46:42.426Z,3.93
2022-12-06T10:49:20.284Z,4.00
2022-12-06T10:51:56.706Z,4.30
2022-12-06T10:54:31.600Z,3.60
2022-12-06T10:57:04.225Z,3.77
2022-12-06T10:59:38.344Z,3.83
2022-12-06T11:02:21.303Z,3.33
2022-12-06T11:04:53.383Z,4.00
2022-12-06T11:07:25.262Z,3.67
2022-12-06T11:09:56.639Z,3.33
2022-12-06T11:12:31.540Z,3.50
2022-12-06T11:15:13.473Z,3.40
2022-12-06T11:17:45.062Z,3.40
2022-12-06T11:20:21.860Z,3.60
2022-12-06T11:22:59.552Z,4.23
2022-12-06T11:25:31.464Z,3.73
2022-12-06T11:28:09.857Z,3.80
2022-12-06T11:30:39.121Z,3.13
2022-12-06T11:33:07.067Z,2.80
2022-12-06T11:35:34.782Z,2.70
2022-12-06T11:38:06.724Z,2.53
2022-12-06T11:40:42.289Z,2.23
2022-12-06T11:43:16.777Z,2.30
2022-12-06T11:45:47.247Z,2.23
2022-12-06T11:48:18.048Z,1.90
2022-12-06T11:50:47.146Z,2.27
2022-12-06T11:53:22.805Z,1.97
2022-12-06T11:55:53.604Z,1.60
2022-12-06T11:58:27.878Z,1.80
2022-12-06T12:01:03.257Z,2.03
2022-12-06T12:03:33.541Z,2.20
2022-12-06T12:06:21.232Z,1.93
2022-12-06T12:08:59.162Z,1.53
2022-12-06T12:11:30.250Z,1.70
2022-12-06T12:14:02.001Z,1.73
2022-12-06T12:16:35.750Z,1.97
2022-12-06T12:19:06.877Z,2.03
2022-12-06T12:21:39.655Z,1.80
2022-12-06T12:25:03.199Z,1.70
2022-12-06T12:27:44.951Z,1.40
2022-12-06T12:30:34.555Z,1.80
2022-12-06T12:33:19.632Z,1.23
2022-12-06T12:35:49.687Z,1.50
2022-12-06T12:38:24.735Z,1.50
2022-12-06T12:40:55.997Z,1.50
2022-12-06T12:43:26.636Z,1.50
2022-12-06T12:46:22.300Z,1.33
2022-12-06T12:48:52.412Z,1.50
2022-12-06T12:51:33.645Z,1.60
2022-12-06T12:54:03.574Z,1.70
2022-12-06T12:56:34.725Z,1.43
2022-12-06T12:59:05.047Z,1.40
2022-12-06T13:01:43.382Z,1.20
2022-12-06T13:04:28.193Z,1.50
2022-12-06T13:07:00.736Z,1.27
2022-12-06T13:09:32.085Z,1.30
2022-12-06T13:12:04.727Z,1.47
2022-12-06T13:14:34.224Z,1.33
2022-12-06T13:17:08.999Z,1.23
2022-12-06T13:19:42.867Z,1.50
2022-12-06T13:22:17.176Z,1.40
2022-12-06T13:24:47.405Z,1.60
2022-12-06T13:27:19.011Z,1.10
2022-12-06T13:29:53.507Z,1.53
2022-12-06T13:32:24.109Z,1.70
2022-12-06T13:34:57.517Z,1.60
2022-12-06T13:37:30.929Z,1.50
2022-12-06T13:39:59.153Z,1.73
2022-12-06T13:42:46.554Z,1.70
2022-12-06T13:45:40.490Z,1.60
2022-12-06T13:48:37.222Z,1.97
2022-12-06T13:51:11.914Z,2.17
2022-12-06T13:54:15.873Z,2.13
2022-12-06T13:56:43.784Z,1.60
2022-12-06T13:59:34.551Z,1.90
2022-12-06T14:02:02.449Z,1.90
2022-12-06T14:04:38.812Z,2.03
2022-12-06T14:09:41.090Z,2.10
2022-12-06T14:12:16.545Z,2.37
2022-12-06T14:14:44.687Z,1.97
2022-12-06T14:17:26.942Z,1.83
2022-12-06T14:20:04.761Z,2.00
2022-12-06T14:22:36.766Z,2.20
2022-12-06T14:25:07.472Z,2.60
2022-12-06T14:27:42.884Z,3.13
2022-12-06T14:30:24.806Z,3.17
2022-12-06T14:32:55.415Z,3.17
2022-12-06T14:35:25.351Z,3.00
2022-12-06T14:37:56.857Z,3.23
2022-12-06T14:40:45.955Z,2.93
2022-12-06T14:43:17.270Z,3.17
2022-12-06T14:45:46.642Z,3.10
2022-12-06T14:48:14.705Z,2.90
2022-12-06T14:50:44.354Z,3.20
2022-12-06T14:53:15.631Z,3.07
2022-12-06T14:55:56.144Z,3.00
2022-12-06T14:58:27.365Z,2.80
2022-12-06T15:00:57.709Z,2.70
2022-12-06T15:03:30.867Z,2.50
2022-12-06T15:06:17.276Z,2.53
2022-12-06T15:08:54.923Z,3.23
2022-12-06T15:11:44.253Z,3.17
2022-12-06T15:14:14.762Z,3.10
2022-12-06T15:16:44.931Z,4.00
2022-12-06T15:19:14.946Z,4.07
2022-12-06T15:21:43.180Z,4.20
2022-12-06T15:24:20.259Z,3.83
2022-12-06T15:26:48.648Z,3.67
2022-12-06T15:29:16.572Z,3.63
2022-12-06T15:31:49.318Z,3.20
2022-12-06T15:34:26.766Z,3.10
2022-12-06T15:37:15.128Z,2.70
2022-12-06T15:39:44.936Z,2.97
2022-12-06T15:42:19.067Z,3.00
2022-12-06T15:44:49.888Z,2.97
2022-12-06T15:47:19.519Z,3.30
2022-12-06T15:49:47.595Z,3.13
2022-12-06T15:52:18.052Z,2.90
2022-12-06T15:54:47.201Z,3.10
2022-12-06T15:57:14.942Z,3.10
2022-12-06T15:59:42.712Z,2.80
2022-12-06T16:02:15.492Z,3.30
2022-12-06T16:04:43.936Z,3.37
2022-12-06T16:07:13.406Z,4.70
2022-12-06T16:09:41.215Z,4.87
2022-12-06T16:12:10.621Z,5.10
2022-12-06T16:14:38.405Z,4.40
2022-12-06T16:17:06.291Z,4.10
2022-12-06T16:19:47.957Z,3.63
2022-12-06T16:22:15.803Z,3.43
2022-12-06T16:24:42.582Z,3.50
2022-12-06T16:27:11.778Z,3.33
2022-12-06T16:29:39.508Z,3.57
2022-12-06T16:32:07.599Z,2.77
2022-12-06T16:34:35.357Z,3.47
2022-12-06T16:37:06.444Z,3.00
2022-12-06T16:39:35.917Z,3.30
2022-12-06T16:42:05.148Z,3.33
2022-12-06T16:44:50.842Z,3.20
2022-12-06T16:49:48.362Z,3.20
2022-12-06T16:52:17.188Z,3.30
2022-12-06T16:54:45.455Z,3.10
2022-12-06T16:57:13.480Z,2.90
2022-12-06T16:59:43.293Z,2.80
2022-12-06T17:02:26.460Z,3.80
2022-12-06T17:04:55.076Z,4.40
2022-12-06T17:07:23.048Z,4.40
2022-12-06T17:09:50.792Z,4.30
2022-12-06T17:12:18.726Z,4.13
2022-12-06T17:14:48.188Z,4.17
2022-12-06T17:17:17.411Z,3.80
2022-12-06T17:19:45.474Z,4.23
2022-12-06T17:22:16.356Z,6.27
2022-12-06T17:24:44.225Z,5.63
2022-12-06T17:27:14.795Z,5.27
2022-12-06T17:29:43.610Z,4.97
2022-12-06T17:32:13.508Z,5.03
2022-12-06T17:34:41.313Z,3.77
2022-12-06T17:37:09.304Z,4.37
2022-12-06T17:39:37.108Z,4.60
2022-12-06T17:42:22.889Z,6.90
2022-12-06T17:44:50.762Z,8.27
2022-12-06T17:47:20.435Z,9.97
2022-12-06T17:49:48.466Z,13.67
2022-12-06T17:52:16.736Z,14.70
2022-12-06T17:54:44.783Z,13.23
2022-12-06T17:57:16.660Z,12.77
2022-12-06T17:59:45.761Z,12.50
2022-12-06T18:02:16.092Z,11.70
2022-12-06T18:04:47.442Z,9.97
2022-12-06T18:07:16.480Z,8.77
2022-12-06T18:09:44.326Z,8.80
2022-12-06T18:12:14.190Z,8.17
2022-12-06T18:14:41.949Z,9.57
2022-12-06T18:17:09.811Z,8.13
2022-12-06T18:19:37.634Z,8.33
2022-12-06T18:22:06.793Z,8.47
2022-12-06T18:24:36.230Z,8.13
2022-12-06T18:27:05.196Z,8.20
2022-12-06T18:29:33.321Z,8.10
2022-12-06T18:32:01.220Z,7.43
2022-12-06T18:34:29.154Z,7.27
2022-12-06T18:36:57.176Z,8.27
2022-12-06T18:39:26.457Z,8.37
2022-12-06T18:41:55.056Z,8.97
2022-12-06T18:44:23.721Z,9.13
2022-12-06T18:46:51.966Z,8.77
2022-12-06T18:49:19.916Z,7.70
2022-12-06T18:51:47.740Z,7.87
2022-12-06T18:54:15.580Z,7.17
2022-12-06T18:56:44.734Z,7.40
2022-12-06T18:59:13.228Z,8.17
2022-12-06T19:01:42.733Z,7.53
2022-12-06T19:04:14.717Z,7.30
2022-12-06T19:06:44.020Z,8.00
2022-12-06T19:09:13.937Z,8.53
2022-12-06T19:11:45.972Z,9.80
2022-12-06T19:14:14.670Z,11.40
2022-12-06T19:16:44.157Z,10.33
2022-12-06T19:19:16.610Z,9.33
2022-12-06T19:21:45.399Z,8.60
2022-12-06T19:24:15.558Z,8.10
2022-12-06T19:26:45.415Z,7.40
2022-12-06T19:29:13.610Z,6.57
2022-12-06T19:31:41.388Z,6.07
2022-12-06T19:34:16.229Z,6.00
2022-12-06T19:36:44.306Z,5.70
2022-12-06T19:39:13.836Z,5.90
2022-12-06T19:41:55.917Z,5.67
2022-12-06T19:44:25.604Z,5.17
2022-12-06T19:46:53.861Z,4.90
2022-12-06T19:49:23.970Z,5.00
2022-12-06T19:51:52.816Z,5.60
2022-12-06T19:54:22.787Z,5.50
2022-12-06T19:56:53.156Z,5.47
2022-12-06T19:59:21.263Z,5.40
2022-12-06T20:01:52.805Z,5.47
2022-12-06T20:04:22.728Z,5.17
2022-12-06T20:06:51.531Z,6.27
2022-12-06T20:09:20.492Z,6.10
2022-12-06T20:12:02.034Z,6.87
2022-12-06T20:14:31.804Z,6.17
2022-12-06T20:17:01.007Z,6.20
2022-12-06T20:19:29.456Z,5.63
2022-12-06T20:21:57.418Z,6.33
2022-12-06T20:24:25.317Z,6.03
2022-12-06T20:26:55.445Z,5.50
2022-12-06T20:29:23.571Z,6.90
2022-12-06T20:31:51.982Z,6.00
2022-12-06T20:34:21.046Z,6.00
2022-12-06T20:36:48.759Z,5.60
2022-12-06T20:39:21.695Z,6.10
2022-12-06T20:41:50.196Z,6.80
2022-12-06T20:44:18.205Z,6.43
2022-12-06T20:46:46.617Z,5.30
2022-12-06T20:49:16.174Z,5.30
2022-12-06T20:51:51.089Z,6.00
2022-12-06T20:54:20.461Z,5.10
2022-12-06T20:56:51.622Z,4.80
2022-12-06T20:59:19.966Z,5.17
2022-12-06T21:01:48.234Z,4.83
2022-12-06T21:04:16.666Z,4.77
2022-12-06T21:06:45.809Z,4.67
2022-12-06T21:09:13.727Z,4.03
2022-12-06T21:11:41.771Z,3.80
2022-12-06T21:14:12.626Z,3.90
2022-12-06T21:16:42.326Z,3.90
2022-12-06T21:19:13.895Z,3.60
2022-12-06T21:21:44.792Z,4.30
2022-12-06T21:24:16.465Z,4.33
2022-12-06T21:26:44.279Z,4.10
2022-12-06T21:29:16.558Z,4.03
2022-12-06T21:31:44.439Z,3.97
2022-12-06T21:34:12.517Z,4.67
2022-12-06T21:36:40.802Z,3.53
2022-12-06T21:39:09.340Z,4.03
2022-12-06T21:41:38.992Z,4.23
2022-12-06T21:44:06.989Z,4.13
2022-12-06T21:46:34.968Z,4.20
2022-12-06T21:49:03.095Z,3.90
2022-12-06T21:51:32.667Z,3.70
2022-12-06T21:54:00.430Z,4.10
2022-12-06T21:56:30.759Z,4.20
2022-12-06T21:59:01.265Z,4.20
2022-12-06T22:01:31.301Z,4.30
2022-12-06T22:04:03.729Z,4.37
2022-12-06T22:06:32.602Z,4.00
2022-12-06T22:09:03.003Z,3.63
2022-12-06T22:11:31.430Z,3.80
2022-12-06T22:14:01.496Z,3.30
2022-12-06T22:16:30.081Z,3.50
2022-12-06T22:18:58.563Z,2.93
2022-12-06T22:21:28.767Z,3.20
2022-12-06T22:23:57.997Z,3.00
2022-12-06T22:26:28.317Z,2.50
2022-12-06T22:28:56.639Z,2.67
2022-12-06T22:31:27.507Z,2.50
2022-12-06T22:33:56.804Z,2.30
2022-12-06T22:36:24.777Z,2.27
2022-12-06T22:38:54.324Z,2.13
2022-12-06T22:41:22.706Z,3.00
2022-12-06T22:43:52.065Z,2.57
2022-12-06T22:46:20.770Z,3.70
2022-12-06T22:48:50.480Z,2.80
2022-12-06T22:51:20.509Z,2.93
2022-12-06T22:53:52.972Z,3.07
2022-12-06T22:56:20.786Z,3.10
2022-12-06T22:58:48.920Z,3.40
2022-12-06T23:01:31.131Z,3.60
2022-12-06T23:04:02.207Z,3.63
2022-12-06T23:06:30.477Z,3.60
2022-12-06T23:08:58.375Z,3.40
2022-12-06T23:11:28.508Z,3.43
2022-12-06T23:13:57.217Z,3.83
2022-12-06T23:16:27.215Z,3.60
2022-12-06T23:18:56.201Z,3.23
2022-12-06T23:21:27.166Z,3.30
2022-12-06T23:23:56.893Z,3.40
2022-12-06T23:26:26.816Z,3.27
2022-12-06T23:28:55.306Z,3.03
2022-12-06T23:31:25.025Z,4.00
2022-12-06T23:33:54.882Z,4.00
2022-12-06T23:36:25.664Z,4.80
2022-12-06T23:38:53.618Z,6.50
2022-12-06T23:41:24.265Z,7.20
2022-12-06T23:43:53.365Z,7.83
2022-12-06T23:46:23.165Z,8.23
2022-12-06T23:48:51.261Z,8.47
2022-12-06T23:51:21.376Z,7.20
2022-12-06T23:53:52.951Z,6.60
2022-12-06T23:56:22.504Z,6.77
2022-12-06T23:58:51.318Z,6.63
